sensor_id;sensor_type;location;lat;lon;timestamp;temperature;humidity
66102;HTU21D;52883;51.094;5.880;2023-07-13T00:00:42;13.07;118.99
66102;HTU21D;52883;51.094;5.880;2023-07-13T00:03:08;12.99;118.99
66102;HTU21D;52883;51.094;5.880;2023-07-13T00:05:34;12.89;118.99
66102;HTU21D;52883;51.094;5.880;2023-07-13T00:08:00;12.81;118.99
66102;HTU21D;52883;51.094;5.880;2023-07-13T00:10:26;12.78;118.99
66102;HTU21D;52883;51.094;5.880;2023-07-13T00:12:52;12.71;118.99
66102;HTU21D;52883;51.094;5.880;2023-07-13T00:15:26;12.69;118.99
66102;HTU21D;52883;51.094;5.880;2023-07-13T00:17:54;12.71;118.99
66102;HTU21D;52883;51.094;5.880;2023-07-13T00:20:22;12.75;118.99
66102;HTU21D;52883;51.094;5.880;2023-07-13T00:22:49;12.78;118.99
66102;HTU21D;52883;51.094;5.880;2023-07-13T00:25:15;12.75;118.99
66102;HTU21D;52883;51.094;5.880;2023-07-13T00:27:43;12.74;118.99
66102;HTU21D;52883;51.094;5.880;2023-07-13T00:30:10;12.79;118.99
66102;HTU21D;52883;51.094;5.880;2023-07-13T00:32:36;12.77;118.99
66102;HTU21D;52883;51.094;5.880;2023-07-13T00:35:03;12.82;118.99
66102;HTU21D;52883;51.094;5.880;2023-07-13T00:37:30;12.81;118.99
66102;HTU21D;52883;51.094;5.880;2023-07-13T00:39:56;12.76;118.99
66102;HTU21D;52883;51.094;5.880;2023-07-13T00:42:23;12.75;118.99
66102;HTU21D;52883;51.094;5.880;2023-07-13T00:47:46;12.66;118.99
66102;HTU21D;52883;51.094;5.880;2023-07-13T00:50:15;12.62;118.99
66102;HTU21D;52883;51.094;5.880;2023-07-13T00:52:50;12.60;118.99
66102;HTU21D;52883;51.094;5.880;2023-07-13T00:55:21;12.64;118.99
66102;HTU21D;52883;51.094;5.880;2023-07-13T00:57:48;12.60;118.99
66102;HTU21D;52883;51.094;5.880;2023-07-13T01:00:14;12.62;118.99
66102;HTU21D;52883;51.094;5.880;2023-07-13T01:02:43;12.58;118.99
66102;HTU21D;52883;51.094;5.880;2023-07-13T01:05:14;12.56;118.99
66102;HTU21D;52883;51.094;5.880;2023-07-13T01:07:42;12.52;118.99
66102;HTU21D;52883;51.094;5.880;2023-07-13T01:10:09;12.52;118.99
66102;HTU21D;52883;51.094;5.880;2023-07-13T01:12:35;12.56;118.99
66102;HTU21D;52883;51.094;5.880;2023-07-13T01:15:02;12.59;118.99
66102;HTU21D;52883;51.094;5.880;2023-07-13T01:17:29;12.58;118.99
66102;HTU21D;52883;51.094;5.880;2023-07-13T01:19:55;12.58;118.99
66102;HTU21D;52883;51.094;5.880;2023-07-13T01:22:22;12.53;118.99
66102;HTU21D;52883;51.094;5.880;2023-07-13T01:24:51;12.52;118.99
66102;HTU21D;52883;51.094;5.880;2023-07-13T01:27:24;12.55;118.99
66102;HTU21D;52883;51.094;5.880;2023-07-13T01:29:52;12.51;118.99
66102;HTU21D;52883;51.094;5.880;2023-07-13T01:32:23;12.51;118.99
66102;HTU21D;52883;51.094;5.880;2023-07-13T01:34:51;12.57;118.99
66102;HTU21D;52883;51.094;5.880;2023-07-13T01:37:20;12.61;118.99
66102;HTU21D;52883;51.094;5.880;2023-07-13T01:39:47;12.63;118.99
66102;HTU21D;52883;51.094;5.880;2023-07-13T01:42:13;12.61;118.99
66102;HTU21D;52883;51.094;5.880;2023-07-13T01:44:39;12.61;118.99
66102;HTU21D;52883;51.094;5.880;2023-07-13T01:47:07;12.56;118.99
66102;HTU21D;52883;51.094;5.880;2023-07-13T01:49:32;12.55;118.99
66102;HTU21D;52883;51.094;5.880;2023-07-13T01:51:58;12.51;118.99
66102;HTU21D;52883;51.094;5.880;2023-07-13T01:54:24;12.48;118.99
66102;HTU21D;52883;51.094;5.880;2023-07-13T01:56:50;12.48;118.99
66102;HTU21D;52883;51.094;5.880;2023-07-13T01:59:16;12.49;118.99
66102;HTU21D;52883;51.094;5.880;2023-07-13T02:01:41;12.45;118.99
66102;HTU21D;52883;51.094;5.880;2023-07-13T02:04:07;12.41;118.99
66102;HTU21D;52883;51.094;5.880;2023-07-13T02:06:33;12.33;118.99
66102;HTU21D;52883;51.094;5.880;2023-07-13T02:08:59;12.26;118.99
66102;HTU21D;52883;51.094;5.880;2023-07-13T02:11:25;12.25;118.99
66102;HTU21D;52883;51.094;5.880;2023-07-13T02:13:59;12.22;118.99
66102;HTU21D;52883;51.094;5.880;2023-07-13T02:16:27;12.26;118.99
66102;HTU21D;52883;51.094;5.880;2023-07-13T02:18:53;12.28;118.99
66102;HTU21D;52883;51.094;5.880;2023-07-13T02:21:22;12.28;118.99
66102;HTU21D;52883;51.094;5.880;2023-07-13T02:23:49;12.29;118.99
66102;HTU21D;52883;51.094;5.880;2023-07-13T02:26:16;12.26;118.99
66102;HTU21D;52883;51.094;5.880;2023-07-13T02:28:41;12.27;118.99
66102;HTU21D;52883;51.094;5.880;2023-07-13T02:31:09;12.25;118.99
66102;HTU21D;52883;51.094;5.880;2023-07-13T02:33:35;12.26;118.99
66102;HTU21D;52883;51.094;5.880;2023-07-13T02:36:01;12.26;118.99
66102;HTU21D;52883;51.094;5.880;2023-07-13T02:38:27;12.25;118.99
66102;HTU21D;52883;51.094;5.880;2023-07-13T02:40:53;12.23;118.99
66102;HTU21D;52883;51.094;5.880;2023-07-13T02:43:19;12.25;118.99
66102;HTU21D;52883;51.094;5.880;2023-07-13T02:45:46;12.26;118.99
66102;HTU21D;52883;51.094;5.880;2023-07-13T02:48:13;12.26;118.99
66102;HTU21D;52883;51.094;5.880;2023-07-13T02:50:39;12.34;118.99
66102;HTU21D;52883;51.094;5.880;2023-07-13T02:53:05;12.41;118.99
66102;HTU21D;52883;51.094;5.880;2023-07-13T02:55:31;12.42;118.99
66102;HTU21D;52883;51.094;5.880;2023-07-13T02:57:56;12.38;118.99
66102;HTU21D;52883;51.094;5.880;2023-07-13T03:00:23;12.29;118.99
66102;HTU21D;52883;51.094;5.880;2023-07-13T03:02:48;12.30;118.99
66102;HTU21D;52883;51.094;5.880;2023-07-13T03:05:16;12.29;118.99
66102;HTU21D;52883;51.094;5.880;2023-07-13T03:07:42;12.31;118.99
66102;HTU21D;52883;51.094;5.880;2023-07-13T03:10:10;12.31;118.99
66102;HTU21D;52883;51.094;5.880;2023-07-13T03:12:43;12.31;118.99
66102;HTU21D;52883;51.094;5.880;2023-07-13T03:15:16;12.36;118.99
66102;HTU21D;52883;51.094;5.880;2023-07-13T03:17:43;12.41;118.99
66102;HTU21D;52883;51.094;5.880;2023-07-13T03:20:10;12.40;118.99
66102;HTU21D;52883;51.094;5.880;2023-07-13T03:22:35;12.41;118.99
66102;HTU21D;52883;51.094;5.880;2023-07-13T03:25:02;12.45;118.99
66102;HTU21D;52883;51.094;5.880;2023-07-13T03:27:28;12.43;118.99
66102;HTU21D;52883;51.094;5.880;2023-07-13T03:29:54;12.43;118.99
66102;HTU21D;52883;51.094;5.880;2023-07-13T03:32:20;12.46;118.99
66102;HTU21D;52883;51.094;5.880;2023-07-13T03:34:46;12.46;118.99
66102;HTU21D;52883;51.094;5.880;2023-07-13T03:37:13;12.42;118.99
66102;HTU21D;52883;51.094;5.880;2023-07-13T03:39:39;12.37;118.99
66102;HTU21D;52883;51.094;5.880;2023-07-13T03:42:06;12.43;118.99
66102;HTU21D;52883;51.094;5.880;2023-07-13T03:44:32;12.46;118.99
66102;HTU21D;52883;51.094;5.880;2023-07-13T03:46:58;12.46;118.99
66102;HTU21D;52883;51.094;5.880;2023-07-13T03:49:23;12.49;118.99
66102;HTU21D;52883;51.094;5.880;2023-07-13T03:51:49;12.49;118.99
66102;HTU21D;52883;51.094;5.880;2023-07-13T03:54:15;12.52;118.99
66102;HTU21D;52883;51.094;5.880;2023-07-13T03:56:41;12.57;118.99
66102;HTU21D;52883;51.094;5.880;2023-07-13T03:59:08;12.62;118.99
66102;HTU21D;52883;51.094;5.880;2023-07-13T04:01:34;12.70;118.99
66102;HTU21D;52883;51.094;5.880;2023-07-13T04:04:00;12.75;118.99
66102;HTU21D;52883;51.094;5.880;2023-07-13T04:06:29;12.85;118.99
66102;HTU21D;52883;51.094;5.880;2023-07-13T04:08:58;12.94;118.99
66102;HTU21D;52883;51.094;5.880;2023-07-13T04:11:27;13.00;118.99
66102;HTU21D;52883;51.094;5.880;2023-07-13T04:13:54;13.09;118.99
66102;HTU21D;52883;51.094;5.880;2023-07-13T04:16:21;13.18;118.99
66102;HTU21D;52883;51.094;5.880;2023-07-13T04:18:47;13.29;118.99
66102;HTU21D;52883;51.094;5.880;2023-07-13T04:21:14;13.43;118.99
66102;HTU21D;52883;51.094;5.880;2023-07-13T04:23:40;13.56;118.99
66102;HTU21D;52883;51.094;5.880;2023-07-13T04:26:06;13.63;118.99
66102;HTU21D;52883;51.094;5.880;2023-07-13T04:28:33;13.74;118.99
66102;HTU21D;52883;51.094;5.880;2023-07-13T04:30:59;13.81;118.99
66102;HTU21D;52883;51.094;5.880;2023-07-13T04:33:26;13.90;118.99
66102;HTU21D;52883;51.094;5.880;2023-07-13T04:35:54;13.95;118.99
66102;HTU21D;52883;51.094;5.880;2023-07-13T04:38:29;14.41;118.99
66102;HTU21D;52883;51.094;5.880;2023-07-13T04:40:58;15.44;118.99
66102;HTU21D;52883;51.094;5.880;2023-07-13T04:43:25;16.43;118.99
66102;HTU21D;52883;51.094;5.880;2023-07-13T04:45:52;17.21;118.99
66102;HTU21D;52883;51.094;5.880;2023-07-13T04:48:19;17.89;118.99
66102;HTU21D;52883;51.094;5.880;2023-07-13T04:50:45;18.20;118.99
66102;HTU21D;52883;51.094;5.880;2023-07-13T04:53:12;18.26;118.99
66102;HTU21D;52883;51.094;5.880;2023-07-13T04:55:38;18.53;118.99
66102;HTU21D;52883;51.094;5.880;2023-07-13T04:58:04;19.00;118.99
66102;HTU21D;52883;51.094;5.880;2023-07-13T05:00:30;19.55;118.99
66102;HTU21D;52883;51.094;5.880;2023-07-13T05:02:57;19.70;118.99
66102;HTU21D;52883;51.094;5.880;2023-07-13T05:05:25;19.83;118.99
66102;HTU21D;52883;51.094;5.880;2023-07-13T05:07:51;20.00;118.99
66102;HTU21D;52883;51.094;5.880;2023-07-13T05:10:17;19.69;118.99
66102;HTU21D;52883;51.094;5.880;2023-07-13T05:12:43;19.18;118.99
66102;HTU21D;52883;51.094;5.880;2023-07-13T05:15:09;18.76;118.99
66102;HTU21D;52883;51.094;5.880;2023-07-13T05:17:35;18.44;118.99
66102;HTU21D;52883;51.094;5.880;2023-07-13T05:20:00;18.30;118.99
66102;HTU21D;52883;51.094;5.880;2023-07-13T05:22:26;18.26;118.99
66102;HTU21D;52883;51.094;5.880;2023-07-13T05:24:52;18.66;118.99
66102;HTU21D;52883;51.094;5.880;2023-07-13T05:27:18;18.88;118.99
66102;HTU21D;52883;51.094;5.880;2023-07-13T05:29:43;19.01;118.99
66102;HTU21D;52883;51.094;5.880;2023-07-13T05:32:10;18.95;118.99
66102;HTU21D;52883;51.094;5.880;2023-07-13T05:34:36;18.71;118.99
66102;HTU21D;52883;51.094;5.880;2023-07-13T05:37:01;18.49;118.99
66102;HTU21D;52883;51.094;5.880;2023-07-13T05:39:27;18.34;118.99
66102;HTU21D;52883;51.094;5.880;2023-07-13T05:41:53;18.17;118.99
66102;HTU21D;52883;51.094;5.880;2023-07-13T05:44:19;18.07;118.99
66102;HTU21D;52883;51.094;5.880;2023-07-13T05:46:45;18.08;118.99
66102;HTU21D;52883;51.094;5.880;2023-07-13T05:49:11;18.02;118.99
66102;HTU21D;52883;51.094;5.880;2023-07-13T05:51:37;18.02;118.99
66102;HTU21D;52883;51.094;5.880;2023-07-13T05:54:03;18.06;118.99
66102;HTU21D;52883;51.094;5.880;2023-07-13T05:56:28;18.19;118.99
66102;HTU21D;52883;51.094;5.880;2023-07-13T05:58:54;18.39;118.99
66102;HTU21D;52883;51.094;5.880;2023-07-13T06:01:20;18.56;118.99
66102;HTU21D;52883;51.094;5.880;2023-07-13T06:03:47;18.72;118.99
66102;HTU21D;52883;51.094;5.880;2023-07-13T06:06:14;19.01;118.99
66102;HTU21D;52883;51.094;5.880;2023-07-13T06:08:40;19.24;118.99
66102;HTU21D;52883;51.094;5.880;2023-07-13T06:11:15;19.51;118.99
66102;HTU21D;52883;51.094;5.880;2023-07-13T06:13:42;19.73;118.99
66102;HTU21D;52883;51.094;5.880;2023-07-13T06:16:08;19.94;118.99
66102;HTU21D;52883;51.094;5.880;2023-07-13T06:18:36;20.17;118.99
66102;HTU21D;52883;51.094;5.880;2023-07-13T06:21:20;20.37;118.99
66102;HTU21D;52883;51.094;5.880;2023-07-13T06:23:49;20.39;118.99
66102;HTU21D;52883;51.094;5.880;2023-07-13T06:26:17;20.59;118.99
66102;HTU21D;52883;51.094;5.880;2023-07-13T06:28:43;20.79;118.99
66102;HTU21D;52883;51.094;5.880;2023-07-13T06:31:11;21.05;118.99
66102;HTU21D;52883;51.094;5.880;2023-07-13T06:33:38;21.24;118.99
66102;HTU21D;52883;51.094;5.880;2023-07-13T06:36:06;21.29;118.99
66102;HTU21D;52883;51.094;5.880;2023-07-13T06:38:33;21.15;118.99
66102;HTU21D;52883;51.094;5.880;2023-07-13T06:40:59;21.13;118.99
66102;HTU21D;52883;51.094;5.880;2023-07-13T06:43:25;21.21;118.99
66102;HTU21D;52883;51.094;5.880;2023-07-13T06:45:54;21.28;118.99
66102;HTU21D;52883;51.094;5.880;2023-07-13T06:48:20;21.39;118.99
66102;HTU21D;52883;51.094;5.880;2023-07-13T06:50:47;21.40;118.99
66102;HTU21D;52883;51.094;5.880;2023-07-13T06:53:13;21.34;118.99
66102;HTU21D;52883;51.094;5.880;2023-07-13T06:55:39;21.45;118.99
66102;HTU21D;52883;51.094;5.880;2023-07-13T06:58:05;21.49;118.99
66102;HTU21D;52883;51.094;5.880;2023-07-13T07:00:32;21.48;118.99
66102;HTU21D;52883;51.094;5.880;2023-07-13T07:02:57;21.38;118.99
66102;HTU21D;52883;51.094;5.880;2023-07-13T07:05:23;21.35;118.99
66102;HTU21D;52883;51.094;5.880;2023-07-13T07:07:54;21.40;118.99
66102;HTU21D;52883;51.094;5.880;2023-07-13T07:10:21;21.48;118.99
66102;HTU21D;52883;51.094;5.880;2023-07-13T07:12:47;21.63;118.99
66102;HTU21D;52883;51.094;5.880;2023-07-13T07:15:13;21.81;118.99
66102;HTU21D;52883;51.094;5.880;2023-07-13T07:17:39;21.90;118.99
66102;HTU21D;52883;51.094;5.880;2023-07-13T07:20:05;21.87;118.99
66102;HTU21D;52883;51.094;5.880;2023-07-13T07:22:31;21.94;118.99
66102;HTU21D;52883;51.094;5.880;2023-07-13T07:24:57;21.93;118.99
66102;HTU21D;52883;51.094;5.880;2023-07-13T07:27:24;22.04;118.99
66102;HTU21D;52883;51.094;5.880;2023-07-13T07:29:50;22.26;118.99
66102;HTU21D;52883;51.094;5.880;2023-07-13T07:32:16;22.46;118.99
66102;HTU21D;52883;51.094;5.880;2023-07-13T07:34:42;22.63;118.99
66102;HTU21D;52883;51.094;5.880;2023-07-13T07:37:12;22.76;118.99
66102;HTU21D;52883;51.094;5.880;2023-07-13T07:39:38;22.69;118.99
66102;HTU21D;52883;51.094;5.880;2023-07-13T07:42:04;22.62;118.99
66102;HTU21D;52883;51.094;5.880;2023-07-13T07:44:31;22.64;118.99
66102;HTU21D;52883;51.094;5.880;2023-07-13T07:46:57;22.76;118.99
66102;HTU21D;52883;51.094;5.880;2023-07-13T07:49:22;22.90;118.99
66102;HTU21D;52883;51.094;5.880;2023-07-13T07:51:48;23.16;118.99
66102;HTU21D;52883;51.094;5.880;2023-07-13T07:54:14;23.43;118.99
66102;HTU21D;52883;51.094;5.880;2023-07-13T07:56:40;23.47;118.99
66102;HTU21D;52883;51.094;5.880;2023-07-13T07:59:06;23.65;118.99
66102;HTU21D;52883;51.094;5.880;2023-07-13T08:01:31;23.90;118.99
66102;HTU21D;52883;51.094;5.880;2023-07-13T08:03:57;24.06;118.99
66102;HTU21D;52883;51.094;5.880;2023-07-13T08:06:23;24.13;118.99
66102;HTU21D;52883;51.094;5.880;2023-07-13T08:08:49;24.17;118.99
66102;HTU21D;52883;51.094;5.880;2023-07-13T08:11:16;24.29;118.99
66102;HTU21D;52883;51.094;5.880;2023-07-13T08:13:42;24.45;118.99
66102;HTU21D;52883;51.094;5.880;2023-07-13T08:16:08;24.55;118.99
66102;HTU21D;52883;51.094;5.880;2023-07-13T08:18:33;24.85;118.99
66102;HTU21D;52883;51.094;5.880;2023-07-13T08:21:06;24.93;118.99
66102;HTU21D;52883;51.094;5.880;2023-07-13T08:23:32;25.07;118.99
66102;HTU21D;52883;51.094;5.880;2023-07-13T08:25:58;25.23;118.99
66102;HTU21D;52883;51.094;5.880;2023-07-13T08:28:24;25.51;118.99
66102;HTU21D;52883;51.094;5.880;2023-07-13T08:30:50;25.95;118.99
66102;HTU21D;52883;51.094;5.880;2023-07-13T08:33:18;26.36;118.99
66102;HTU21D;52883;51.094;5.880;2023-07-13T08:35:47;26.76;118.99
66102;HTU21D;52883;51.094;5.880;2023-07-13T08:38:14;27.17;118.99
66102;HTU21D;52883;51.094;5.880;2023-07-13T08:40:41;27.54;118.99
66102;HTU21D;52883;51.094;5.880;2023-07-13T08:43:15;28.14;118.99
66102;HTU21D;52883;51.094;5.880;2023-07-13T08:45:43;29.03;104.34
66102;HTU21D;52883;51.094;5.880;2023-07-13T08:49:09;29.74;109.97
66102;HTU21D;52883;51.094;5.880;2023-07-13T08:53:48;29.38;118.97
66102;HTU21D;52883;51.094;5.880;2023-07-13T08:56:26;29.75;114.34
66102;HTU21D;52883;51.094;5.880;2023-07-13T08:58:58;29.61;109.92
66102;HTU21D;52883;51.094;5.880;2023-07-13T09:01:33;29.13;104.81
66102;HTU21D;52883;51.094;5.880;2023-07-13T09:04:11;28.77;103.31
66102;HTU21D;52883;51.094;5.880;2023-07-13T09:09:45;28.82;118.73
66102;HTU21D;52883;51.094;5.880;2023-07-13T09:12:27;29.32;113.61
66102;HTU21D;52883;51.094;5.880;2023-07-13T09:14:58;29.77;108.88
66102;HTU21D;52883;51.094;5.880;2023-07-13T09:17:35;30.15;104.35
66102;HTU21D;52883;51.094;5.880;2023-07-13T09:20:30;30.32;97.61
66102;HTU21D;52883;51.094;5.880;2023-07-13T09:23:03;30.38;104.37
66102;HTU21D;52883;51.094;5.880;2023-07-13T09:25:33;30.50;88.95
66102;HTU21D;52883;51.094;5.880;2023-07-13T09:28:19;30.20;93.27
66102;HTU21D;52883;51.094;5.880;2023-07-13T09:33:27;29.76;100.89
66102;HTU21D;52883;51.094;5.880;2023-07-13T09:35:55;30.60;84.20
66102;HTU21D;52883;51.094;5.880;2023-07-13T09:38:27;30.96;94.50
66102;HTU21D;52883;51.094;5.880;2023-07-13T09:41:03;31.06;96.01
66102;HTU21D;52883;51.094;5.880;2023-07-13T09:43:30;30.59;93.25
66102;HTU21D;52883;51.094;5.880;2023-07-13T09:45:56;30.53;84.23
66102;HTU21D;52883;51.094;5.880;2023-07-13T09:48:21;31.42;89.72
66102;HTU21D;52883;51.094;5.880;2023-07-13T09:50:48;32.56;78.18
66102;HTU21D;52883;51.094;5.880;2023-07-13T09:53:16;32.92;79.61
66102;HTU21D;52883;51.094;5.880;2023-07-13T09:55:47;32.90;79.36
66102;HTU21D;52883;51.094;5.880;2023-07-13T09:58:16;33.18;76.18
66102;HTU21D;52883;51.094;5.880;2023-07-13T10:00:44;33.53;73.34
66102;HTU21D;52883;51.094;5.880;2023-07-13T10:03:28;33.14;75.12
66102;HTU21D;52883;51.094;5.880;2023-07-13T10:06:06;32.16;79.72
66102;HTU21D;52883;51.094;5.880;2023-07-13T10:08:36;31.05;73.33
66102;HTU21D;52883;51.094;5.880;2023-07-13T10:11:45;30.33;78.74
66102;HTU21D;52883;51.094;5.880;2023-07-13T10:14:19;29.93;95.20
66102;HTU21D;52883;51.094;5.880;2023-07-13T10:16:46;30.24;96.20
66102;HTU21D;52883;51.094;5.880;2023-07-13T10:19:21;30.85;80.54
66102;HTU21D;52883;51.094;5.880;2023-07-13T10:21:52;31.74;77.91
66102;HTU21D;52883;51.094;5.880;2023-07-13T10:24:19;32.93;73.80
66102;HTU21D;52883;51.094;5.880;2023-07-13T10:29:44;34.70;68.13
66102;HTU21D;52883;51.094;5.880;2023-07-13T10:32:14;34.55;61.59
66102;HTU21D;52883;51.094;5.880;2023-07-13T10:34:46;33.79;60.86
66102;HTU21D;52883;51.094;5.880;2023-07-13T10:37:23;32.78;67.81
66102;HTU21D;52883;51.094;5.880;2023-07-13T10:39:56;31.90;75.74
66102;HTU21D;52883;51.094;5.880;2023-07-13T10:42:30;32.10;67.74
66102;HTU21D;52883;51.094;5.880;2023-07-13T10:44:57;32.54;75.51
66102;HTU21D;52883;51.094;5.880;2023-07-13T10:47:24;33.05;66.75
66102;HTU21D;52883;51.094;5.880;2023-07-13T10:49:56;32.92;64.47
66102;HTU21D;52883;51.094;5.880;2023-07-13T10:52:46;32.67;64.70
66102;HTU21D;52883;51.094;5.880;2023-07-13T10:55:31;32.81;68.08
66102;HTU21D;52883;51.094;5.880;2023-07-13T10:58:18;33.19;71.98
66102;HTU21D;52883;51.094;5.880;2023-07-13T11:00:53;33.63;72.51
66102;HTU21D;52883;51.094;5.880;2023-07-13T11:03:22;34.02;51.39
66102;HTU21D;52883;51.094;5.880;2023-07-13T11:05:50;33.87;67.59
66102;HTU21D;52883;51.094;5.880;2023-07-13T11:08:31;33.81;63.41
66102;HTU21D;52883;51.094;5.880;2023-07-13T11:10:59;33.77;64.12
66102;HTU21D;52883;51.094;5.880;2023-07-13T11:13:37;33.27;60.22
66102;HTU21D;52883;51.094;5.880;2023-07-13T11:18:47;33.19;59.13
66102;HTU21D;52883;51.094;5.880;2023-07-13T11:23:52;33.34;61.67
66102;HTU21D;52883;51.094;5.880;2023-07-13T11:26:43;33.66;61.05
66102;HTU21D;52883;51.094;5.880;2023-07-13T11:32:00;34.48;54.63
66102;HTU21D;52883;51.094;5.880;2023-07-13T11:34:31;34.62;49.64
66102;HTU21D;52883;51.094;5.880;2023-07-13T11:37:00;34.95;53.06
66102;HTU21D;52883;51.094;5.880;2023-07-13T11:39:33;35.07;47.41
66102;HTU21D;52883;51.094;5.880;2023-07-13T11:42:03;35.28;42.77
66102;HTU21D;52883;51.094;5.880;2023-07-13T11:44:31;35.49;40.65
66102;HTU21D;52883;51.094;5.880;2023-07-13T11:47:00;35.47;50.43
66102;HTU21D;52883;51.094;5.880;2023-07-13T11:49:30;35.64;40.08
66102;HTU21D;52883;51.094;5.880;2023-07-13T11:51:57;35.58;48.81
66102;HTU21D;52883;51.094;5.880;2023-07-13T11:54:29;34.65;48.95
66102;HTU21D;52883;51.094;5.880;2023-07-13T11:57:03;34.01;51.38
66102;HTU21D;52883;51.094;5.880;2023-07-13T11:59:32;34.06;51.88
66102;HTU21D;52883;51.094;5.880;2023-07-13T12:01:58;34.27;53.42
66102;HTU21D;52883;51.094;5.880;2023-07-13T12:04:32;34.91;50.61
66102;HTU21D;52883;51.094;5.880;2023-07-13T12:07:07;35.55;50.24
66102;HTU21D;52883;51.094;5.880;2023-07-13T12:09:35;36.04;42.59
66102;HTU21D;52883;51.094;5.880;2023-07-13T12:12:02;35.83;34.02
66102;HTU21D;52883;51.094;5.880;2023-07-13T12:14:28;35.62;37.10
66102;HTU21D;52883;51.094;5.880;2023-07-13T12:16:54;35.81;42.16
66102;HTU21D;52883;51.094;5.880;2023-07-13T12:19:30;35.67;38.72
66102;HTU21D;52883;51.094;5.880;2023-07-13T12:21:58;35.24;39.43
66102;HTU21D;52883;51.094;5.880;2023-07-13T12:24:26;34.68;41.36
66102;HTU21D;52883;51.094;5.880;2023-07-13T12:26:54;34.06;42.55
66102;HTU21D;52883;51.094;5.880;2023-07-13T12:29:21;33.36;45.90
66102;HTU21D;52883;51.094;5.880;2023-07-13T12:31:49;33.09;51.23
66102;HTU21D;52883;51.094;5.880;2023-07-13T12:34:17;33.01;51.64
66102;HTU21D;52883;51.094;5.880;2023-07-13T12:36:59;32.88;52.85
66102;HTU21D;52883;51.094;5.880;2023-07-13T12:39:37;32.38;48.79
66102;HTU21D;52883;51.094;5.880;2023-07-13T12:44:46;31.75;53.87
66102;HTU21D;52883;51.094;5.880;2023-07-13T12:47:14;31.71;55.52
66102;HTU21D;52883;51.094;5.880;2023-07-13T12:49:55;32.03;54.78
66102;HTU21D;52883;51.094;5.880;2023-07-13T12:52:30;32.15;53.88
66102;HTU21D;52883;51.094;5.880;2023-07-13T12:54:58;32.08;53.36
66102;HTU21D;52883;51.094;5.880;2023-07-13T12:57:26;32.60;49.83
66102;HTU21D;52883;51.094;5.880;2023-07-13T12:59:55;32.77;51.50
66102;HTU21D;52883;51.094;5.880;2023-07-13T13:02:33;32.71;44.35
66102;HTU21D;52883;51.094;5.880;2023-07-13T13:05:02;32.35;43.71
66102;HTU21D;52883;51.094;5.880;2023-07-13T13:07:29;31.90;52.85
66102;HTU21D;52883;51.094;5.880;2023-07-13T13:09:55;31.39;53.98
66102;HTU21D;52883;51.094;5.880;2023-07-13T13:12:22;30.83;58.83
66102;HTU21D;52883;51.094;5.880;2023-07-13T13:14:51;30.36;60.07
66102;HTU21D;52883;51.094;5.880;2023-07-13T13:17:29;30.06;63.20
66102;HTU21D;52883;51.094;5.880;2023-07-13T13:19:56;30.06;65.88
66102;HTU21D;52883;51.094;5.880;2023-07-13T13:22:22;30.50;63.32
66102;HTU21D;52883;51.094;5.880;2023-07-13T13:24:49;30.68;61.39
66102;HTU21D;52883;51.094;5.880;2023-07-13T13:27:20;30.60;59.97
66102;HTU21D;52883;51.094;5.880;2023-07-13T13:29:49;30.44;59.86
66102;HTU21D;52883;51.094;5.880;2023-07-13T13:32:17;30.33;58.61
66102;HTU21D;52883;51.094;5.880;2023-07-13T13:34:45;30.08;61.04
66102;HTU21D;52883;51.094;5.880;2023-07-13T13:37:22;29.78;58.86
66102;HTU21D;52883;51.094;5.880;2023-07-13T13:39:49;29.18;63.73
66102;HTU21D;52883;51.094;5.880;2023-07-13T13:42:16;28.49;69.21
66102;HTU21D;52883;51.094;5.880;2023-07-13T13:44:42;27.73;74.12
66102;HTU21D;52883;51.094;5.880;2023-07-13T13:47:27;27.14;78.03
66102;HTU21D;52883;51.094;5.880;2023-07-13T13:49:55;26.80;80.09
66102;HTU21D;52883;51.094;5.880;2023-07-13T13:52:20;26.55;82.05
66102;HTU21D;52883;51.094;5.880;2023-07-13T13:54:46;26.50;84.34
66102;HTU21D;52883;51.094;5.880;2023-07-13T13:57:12;26.46;84.26
66102;HTU21D;52883;51.094;5.880;2023-07-13T13:59:38;26.33;86.77
66102;HTU21D;52883;51.094;5.880;2023-07-13T14:02:28;26.04;86.79
66102;HTU21D;52883;51.094;5.880;2023-07-13T14:04:59;25.69;92.25
66102;HTU21D;52883;51.094;5.880;2023-07-13T14:07:27;25.07;110.48
66102;HTU21D;52883;51.094;5.880;2023-07-13T14:09:57;24.42;118.99
66102;HTU21D;52883;51.094;5.880;2023-07-13T14:12:23;23.97;118.99
66102;HTU21D;52883;51.094;5.880;2023-07-13T14:14:55;23.64;118.99
66102;HTU21D;52883;51.094;5.880;2023-07-13T14:17:25;23.34;118.99
66102;HTU21D;52883;51.094;5.880;2023-07-13T14:19:53;23.20;118.99
66102;HTU21D;52883;51.094;5.880;2023-07-13T14:22:26;23.20;118.99
66102;HTU21D;52883;51.094;5.880;2023-07-13T14:24:53;23.11;118.99
66102;HTU21D;52883;51.094;5.880;2023-07-13T14:27:20;22.95;118.99
66102;HTU21D;52883;51.094;5.880;2023-07-13T14:29:46;22.85;118.99
66102;HTU21D;52883;51.094;5.880;2023-07-13T14:32:12;22.73;118.99
66102;HTU21D;52883;51.094;5.880;2023-07-13T14:34:39;22.55;118.99
66102;HTU21D;52883;51.094;5.880;2023-07-13T14:37:05;22.47;118.99
66102;HTU21D;52883;51.094;5.880;2023-07-13T14:39:31;22.43;118.99
66102;HTU21D;52883;51.094;5.880;2023-07-13T14:41:57;22.41;118.99
66102;HTU21D;52883;51.094;5.880;2023-07-13T14:44:28;22.37;118.99
66102;HTU21D;52883;51.094;5.880;2023-07-13T14:46:57;22.26;118.99
66102;HTU21D;52883;51.094;5.880;2023-07-13T14:49:39;22.21;118.99
66102;HTU21D;52883;51.094;5.880;2023-07-13T14:52:16;22.13;118.99
66102;HTU21D;52883;51.094;5.880;2023-07-13T14:54:42;22.21;118.99
66102;HTU21D;52883;51.094;5.880;2023-07-13T14:57:13;22.25;118.99
66102;HTU21D;52883;51.094;5.880;2023-07-13T14:59:39;22.24;118.99
66102;HTU21D;52883;51.094;5.880;2023-07-13T15:02:33;22.28;118.99
66102;HTU21D;52883;51.094;5.880;2023-07-13T15:04:59;22.36;118.99
66102;HTU21D;52883;51.094;5.880;2023-07-13T15:07:25;22.51;118.99
66102;HTU21D;52883;51.094;5.880;2023-07-13T15:09:51;22.64;118.99
66102;HTU21D;52883;51.094;5.880;2023-07-13T15:12:17;22.68;118.99
66102;HTU21D;52883;51.094;5.880;2023-07-13T15:14:43;22.70;118.99
66102;HTU21D;52883;51.094;5.880;2023-07-13T15:17:28;22.81;118.99
66102;HTU21D;52883;51.094;5.880;2023-07-13T15:19:57;22.91;118.99
66102;HTU21D;52883;51.094;5.880;2023-07-13T15:22:23;23.00;118.99
66102;HTU21D;52883;51.094;5.880;2023-07-13T15:24:48;23.23;118.99
66102;HTU21D;52883;51.094;5.880;2023-07-13T15:27:14;23.49;118.99
66102;HTU21D;52883;51.094;5.880;2023-07-13T15:29:40;23.77;118.99
66102;HTU21D;52883;51.094;5.880;2023-07-13T15:32:14;24.10;118.99
66102;HTU21D;52883;51.094;5.880;2023-07-13T15:34:40;24.33;118.99
66102;HTU21D;52883;51.094;5.880;2023-07-13T15:37:15;24.49;118.99
66102;HTU21D;52883;51.094;5.880;2023-07-13T15:39:41;24.73;118.99